Airport View

Enter AWOS ICAO identifier for current METAR.

ex. KFNL

KBEH 191925Z AUTO 30014G28KT 1/2SM SN FZFG SCT009 OVC014 M04/M07 A3020 RMK AO2 PK WND 29028/1916 P0000 T10441067 $

19 Jan 2020 19:46

Frequency: 121.55

Phone: 269-925-9008

Other Area AWOS: KLWA - KSBN - KEKM - KMGC

TAF KSBN 191731Z 1918/2018 26015G24KT 1 1/2SM -SHSN OVC025 FM191930 29015G25KT 1/2SM SHSN FZFG VV004 FM192100 31012KT 4SM -SHSN OVC020 FM200200 35006KT P6SM SCT025 OVC200 FM200900 03003KT P6SM BKN025